createdAt,value
2023-02-22T00:00:03.246Z,101038.22
2023-02-22T00:02:37.155Z,101037.63
2023-02-22T00:05:08.235Z,101032.59
2023-02-22T00:07:38.207Z,101029.34
2023-02-22T00:10:13.547Z,101041.00
2023-02-22T00:12:46.921Z,101035.25
2023-02-22T00:15:16.951Z,101026.66
2023-02-22T00:17:47.447Z,101034.63
2023-02-22T00:20:20.153Z,101030.75
2023-02-22T00:22:51.929Z,101029.53
2023-02-22T00:25:26.771Z,101030.75
2023-02-22T00:27:58.237Z,101033.66
2023-02-22T00:30:30.084Z,101025.09
2023-02-22T00:33:00.897Z,101028.31
2023-02-22T00:35:33.109Z,101022.81
2023-02-22T00:38:04.417Z,101009.63
2023-02-22T00:40:38.464Z,101011.66
2023-02-22T00:43:08.721Z,101005.81
2023-02-22T00:45:39.790Z,101003.72
2023-02-22T00:48:11.664Z,100994.34
2023-02-22T00:50:41.861Z,100994.66
2023-02-22T00:53:12.081Z,100996.69
2023-02-22T00:55:45.758Z,100998.75
2023-02-22T00:58:15.837Z,100995.56
2023-02-22T01:00:46.570Z,100999.38
2023-02-22T01:03:20.522Z,100991.50
2023-02-22T01:05:53.123Z,100996.38
2023-02-22T01:08:25.213Z,100984.22
2023-02-22T01:10:57.973Z,100987.72
2023-02-22T01:13:29.444Z,100967.31
2023-02-22T01:16:00.746Z,100983.25
2023-02-22T01:18:37.803Z,100980.28
2023-02-22T01:21:09.021Z,100977.81
2023-02-22T01:23:39.068Z,100977.34
2023-02-22T01:26:11.608Z,100986.56
2023-02-22T01:28:42.400Z,100972.84
2023-02-22T01:31:13.741Z,100978.78
2023-02-22T01:33:47.464Z,100977.56
2023-02-22T01:36:19.030Z,100977.41
2023-02-22T01:38:49.582Z,100979.00
2023-02-22T01:41:22.622Z,100973.84
2023-02-22T01:43:53.065Z,100969.88
2023-02-22T01:46:25.652Z,100970.75
2023-02-22T01:49:01.328Z,100963.38
2023-02-22T01:51:37.568Z,100967.91
2023-02-22T01:54:13.745Z,100962.94
2023-02-22T01:56:55.507Z,100959.03
2023-02-22T01:59:26.590Z,100954.25
2023-02-22T02:01:56.644Z,100955.53
2023-02-22T02:04:28.138Z,100955.53
2023-02-22T02:07:11.881Z,100951.06
2023-02-22T02:09:50.778Z,100943.31
2023-02-22T02:12:26.187Z,100946.66
2023-02-22T02:14:56.373Z,100951.88
2023-02-22T02:17:26.906Z,100947.25
2023-02-22T02:20:04.532Z,100933.69
2023-02-22T02:22:46.175Z,100942.13
2023-02-22T02:25:51.782Z,100942.66
2023-02-22T02:28:57.073Z,100944.31
2023-02-22T02:32:10.482Z,100934.13
2023-02-22T02:34:51.806Z,100941.78
2023-02-22T02:37:31.362Z,100940.91
2023-02-22T02:40:14.058Z,100934.66
2023-02-22T02:42:49.640Z,100935.22
2023-02-22T02:45:25.504Z,100941.34
2023-02-22T02:47:59.982Z,100933.00
2023-02-22T02:50:39.546Z,100935.13
2023-02-22T02:53:12.241Z,100942.50
2023-02-22T02:55:42.711Z,100934.50
2023-02-22T02:58:20.464Z,100922.72
2023-02-22T03:00:55.689Z,100932.00
2023-02-22T03:03:47.777Z,100934.19
2023-02-22T03:06:35.332Z,100921.88
2023-02-22T03:09:14.174Z,100914.00
2023-02-22T03:11:54.222Z,100914.00
2023-02-22T03:14:33.544Z,100917.97
2023-02-22T03:17:12.472Z,100917.81
2023-02-22T03:19:50.461Z,100908.31
2023-02-22T03:22:26.592Z,100905.81
2023-02-22T03:25:08.987Z,100906.22
2023-02-22T03:27:47.770Z,100901.59
2023-02-22T03:30:24.101Z,100897.69
2023-02-22T03:32:59.637Z,100893.06
2023-02-22T03:35:36.158Z,100885.75
2023-02-22T03:38:14.735Z,100889.53
2023-02-22T03:40:48.911Z,100892.03
2023-02-22T03:43:27.782Z,100882.03
2023-02-22T03:46:03.891Z,100892.03
2023-02-22T03:48:40.791Z,100896.34
2023-02-22T03:51:11.511Z,100896.94
2023-02-22T03:53:48.130Z,100904.44
2023-02-22T03:56:27.027Z,100900.13
2023-02-22T03:58:58.735Z,100891.75
2023-02-22T04:01:28.610Z,100890.69
2023-02-22T04:03:58.751Z,100891.78
2023-02-22T04:06:29.251Z,100876.44
2023-02-22T04:09:02.448Z,100876.81
2023-02-22T04:11:33.314Z,100882.50
2023-02-22T04:14:03.380Z,100880.59
2023-02-22T04:16:33.715Z,100880.41
2023-02-22T04:19:04.084Z,100883.63
2023-02-22T04:21:34.280Z,100868.97
2023-02-22T04:24:09.065Z,100873.81
2023-02-22T04:26:39.055Z,100860.78
2023-02-22T04:29:10.608Z,100870.78
2023-02-22T04:31:42.837Z,100855.66
2023-02-22T04:34:15.075Z,100861.75
2023-02-22T04:36:47.182Z,100864.63
2023-02-22T04:39:20.890Z,100871.94
2023-02-22T04:41:50.988Z,100878.00
2023-02-22T04:44:21.163Z,100881.75
2023-02-22T04:46:51.089Z,100881.19
2023-02-22T04:49:21.227Z,100871.94
2023-02-22T04:51:52.433Z,100874.59
2023-02-22T04:54:28.673Z,100870.13
2023-02-22T04:57:00.052Z,100871.47
2023-02-22T04:59:30.119Z,100839.34
2023-02-22T05:02:03.476Z,100863.56
2023-02-22T05:04:36.306Z,100870.28
2023-02-22T05:07:07.249Z,100862.06
2023-02-22T05:09:46.991Z,100875.25
2023-02-22T05:12:17.037Z,100868.81
2023-02-22T05:14:47.394Z,100872.19
2023-02-22T05:17:17.301Z,100865.59
2023-02-22T05:19:47.763Z,100864.69
2023-02-22T05:22:17.805Z,100857.91
2023-02-22T05:24:52.328Z,100852.38
2023-02-22T05:27:22.735Z,100858.34
2023-02-22T05:29:52.792Z,100850.88
2023-02-22T05:32:22.684Z,100850.19
2023-02-22T05:34:54.975Z,100846.84
2023-02-22T05:37:24.840Z,100844.53
2023-02-22T05:39:57.486Z,100847.94
2023-02-22T05:42:27.350Z,100838.69
2023-02-22T05:44:57.263Z,100846.94
2023-02-22T05:47:27.233Z,100842.47
2023-02-22T05:49:57.147Z,100843.19
2023-02-22T05:52:27.182Z,100844.44
2023-02-22T05:55:00.009Z,100841.94
2023-02-22T05:57:29.892Z,100837.84
2023-02-22T06:00:00.195Z,100835.00
2023-02-22T06:02:30.525Z,100827.72
2023-02-22T06:05:00.473Z,100828.06
2023-02-22T06:07:30.351Z,100828.78
2023-02-22T06:10:02.890Z,100828.09
2023-02-22T06:12:32.716Z,100838.28
2023-02-22T06:15:02.820Z,100839.53
2023-02-22T06:17:32.783Z,100834.34
2023-02-22T06:20:02.735Z,100825.97
2023-02-22T06:22:41.111Z,100830.25
2023-02-22T06:25:17.291Z,100828.63
2023-02-22T06:27:47.453Z,100808.50
2023-02-22T06:30:21.781Z,100832.41
2023-02-22T06:32:52.361Z,100829.53
2023-02-22T06:35:22.272Z,100838.09
2023-02-22T06:37:52.260Z,100833.78
2023-02-22T06:40:29.671Z,100824.47
2023-02-22T06:43:01.033Z,100834.09
2023-02-22T06:45:31.331Z,100827.34
2023-02-22T06:48:04.694Z,100823.41
2023-02-22T06:50:35.949Z,100827.50
2023-02-22T06:53:06.554Z,100833.00
2023-02-22T06:55:39.605Z,100825.88
2023-02-22T06:58:09.456Z,100833.31
2023-02-22T07:00:39.439Z,100816.34
2023-02-22T07:03:15.116Z,100831.84
2023-02-22T07:05:45.649Z,100832.16
2023-02-22T07:08:17.202Z,100828.22
2023-02-22T07:10:50.501Z,100832.63
2023-02-22T07:13:20.449Z,100827.59
2023-02-22T07:15:50.618Z,100835.22
2023-02-22T07:18:20.756Z,100826.22
2023-02-22T07:20:50.783Z,100828.13
2023-02-22T07:23:21.957Z,100833.44
2023-02-22T07:25:54.887Z,100818.56
2023-02-22T07:28:25.182Z,100829.56
2023-02-22T07:30:55.353Z,100826.69
2023-02-22T07:33:27.026Z,100828.56
2023-02-22T07:35:59.451Z,100815.81
2023-02-22T07:38:29.408Z,100818.50
2023-02-22T07:41:02.201Z,100823.44
2023-02-22T07:43:33.228Z,100825.34
2023-02-22T07:46:05.129Z,100817.59
2023-02-22T07:48:35.643Z,100818.41
2023-02-22T07:51:09.921Z,100821.56
2023-02-22T07:53:40.906Z,100822.94
2023-02-22T07:56:13.471Z,100822.84
2023-02-22T07:58:43.425Z,100824.00
2023-02-22T08:01:14.418Z,100818.53
2023-02-22T08:03:48.005Z,100822.75
2023-02-22T08:06:18.130Z,100816.31
2023-02-22T08:08:49.374Z,100813.72
2023-02-22T08:11:22.270Z,100814.50
2023-02-22T08:13:56.662Z,100815.91
2023-02-22T08:16:26.497Z,100804.88
2023-02-22T08:18:57.304Z,100810.81
2023-02-22T08:21:27.509Z,100807.19
2023-02-22T08:23:59.285Z,100801.34
2023-02-22T08:26:32.118Z,100801.63
2023-02-22T08:29:02.100Z,100799.63
2023-02-22T08:31:32.062Z,100795.03
2023-02-22T08:34:02.088Z,100791.84
2023-02-22T08:36:33.124Z,100793.50
2023-02-22T08:39:12.095Z,100791.34
2023-02-22T08:41:45.377Z,100792.41
2023-02-22T08:44:18.330Z,100788.00
2023-02-22T08:46:48.440Z,100797.22
2023-02-22T08:49:18.398Z,100789.69
2023-02-22T08:51:49.316Z,100789.25
2023-02-22T08:54:20.176Z,100787.16
2023-02-22T08:57:00.354Z,100788.63
2023-02-22T08:59:33.501Z,100781.09
2023-02-22T09:02:05.649Z,100781.00
2023-02-22T09:04:35.575Z,100782.47
2023-02-22T09:07:06.456Z,100786.44
2023-02-22T09:09:36.352Z,100787.50
2023-02-22T09:12:13.637Z,100787.06
2023-02-22T09:14:43.712Z,100784.25
2023-02-22T09:17:17.392Z,100783.13
2023-02-22T09:19:48.285Z,100789.91
2023-02-22T09:22:18.418Z,100785.00
2023-02-22T09:24:48.440Z,100782.06
2023-02-22T09:27:22.940Z,100784.22
2023-02-22T09:29:53.197Z,100776.50
2023-02-22T09:32:23.516Z,100776.97
2023-02-22T09:34:54.353Z,100770.72
2023-02-22T09:37:24.486Z,100758.00
2023-02-22T09:39:54.539Z,100762.88
2023-02-22T09:42:33.693Z,100781.09
2023-02-22T09:45:12.882Z,100773.53
2023-02-22T09:47:48.100Z,100776.19
2023-02-22T09:50:20.605Z,100771.75
2023-02-22T09:52:57.416Z,100767.13
2023-02-22T09:55:36.950Z,100766.56
2023-02-22T09:58:17.030Z,100768.44
2023-02-22T10:00:51.651Z,100763.22
2023-02-22T10:03:28.305Z,100768.28
2023-02-22T10:06:03.820Z,100762.66
2023-02-22T10:08:36.205Z,100753.75
2023-02-22T10:11:25.750Z,100755.66
2023-02-22T10:14:10.947Z,100754.91
2023-02-22T10:16:46.436Z,100752.66
2023-02-22T10:19:34.936Z,100744.38
2023-02-22T10:22:27.238Z,100752.06
2023-02-22T10:25:04.847Z,100745.94
2023-02-22T10:27:38.741Z,100745.03
2023-02-22T10:30:25.218Z,100739.53
2023-02-22T10:33:01.503Z,100730.91
2023-02-22T10:35:33.002Z,100725.97
2023-02-22T10:38:10.519Z,100722.22
2023-02-22T10:40:41.466Z,100725.03
2023-02-22T10:43:12.683Z,100720.56
2023-02-22T10:45:45.501Z,100721.41
2023-02-22T10:48:18.741Z,100712.34
2023-02-22T10:50:50.652Z,100716.56
2023-02-22T10:53:21.527Z,100709.69
2023-02-22T10:56:10.007Z,100702.28
2023-02-22T10:58:49.307Z,100705.84
2023-02-22T11:01:31.149Z,100701.53
2023-02-22T11:04:10.351Z,100694.56
2023-02-22T11:06:41.527Z,100698.09
2023-02-22T11:09:14.962Z,100692.47
2023-02-22T11:11:47.174Z,100694.97
2023-02-22T11:14:29.675Z,100686.94
2023-02-22T11:17:04.481Z,100688.78
2023-02-22T11:19:38.460Z,100690.88
2023-02-22T11:22:14.916Z,100690.31
2023-02-22T11:24:58.424Z,100677.44
2023-02-22T11:27:34.098Z,100678.72
2023-02-22T11:30:29.920Z,100674.31
2023-02-22T11:33:23.980Z,100675.50
2023-02-22T11:35:55.910Z,100666.19
2023-02-22T11:38:27.216Z,100664.94
2023-02-22T11:41:24.332Z,100657.16
2023-02-22T11:43:55.623Z,100654.13
2023-02-22T11:46:29.196Z,100646.78
2023-02-22T11:49:05.043Z,100649.13
2023-02-22T11:52:06.744Z,100647.31
2023-02-22T11:54:53.494Z,100643.13
2023-02-22T11:57:36.993Z,100638.97
2023-02-22T12:00:24.646Z,100644.03
2023-02-22T12:03:16.470Z,100639.72
2023-02-22T12:06:09.355Z,100650.84
2023-02-22T12:08:55.702Z,100638.97
2023-02-22T12:11:34.050Z,100640.63
2023-02-22T12:14:16.315Z,100634.78
2023-02-22T12:17:08.409Z,100636.66
2023-02-22T12:19:46.167Z,100622.16
2023-02-22T12:22:25.766Z,100622.16
2023-02-22T12:25:09.395Z,100631.38
2023-02-22T12:27:45.284Z,100631.09
2023-02-22T12:30:19.203Z,100624.53
2023-02-22T12:32:53.819Z,100617.09
2023-02-22T12:35:27.688Z,100609.66
2023-02-22T12:38:13.074Z,100622.66
2023-02-22T12:40:54.080Z,100608.75
2023-02-22T12:43:30.343Z,100594.09
2023-02-22T12:46:06.053Z,100612.28
2023-02-22T12:48:45.055Z,100608.38
2023-02-22T12:51:28.355Z,100607.00
2023-02-22T12:54:12.036Z,100593.75
2023-02-22T12:56:47.607Z,100598.91
2023-02-22T12:59:24.613Z,100595.44
2023-02-22T13:01:58.813Z,100594.16
2023-02-22T13:04:31.857Z,100597.97
2023-02-22T13:07:21.984Z,100583.06
2023-02-22T13:10:19.270Z,100579.91
2023-02-22T13:12:57.554Z,100577.47
2023-02-22T13:15:34.075Z,100577.88
2023-02-22T13:18:13.450Z,100569.78
2023-02-22T13:20:50.561Z,100570.91
2023-02-22T13:23:33.949Z,100560.41
2023-02-22T13:26:13.404Z,100565.56
2023-02-22T13:28:49.556Z,100560.09
2023-02-22T13:31:40.034Z,100552.03
2023-02-22T13:34:41.812Z,100540.44
2023-02-22T13:37:39.236Z,100555.84
2023-02-22T13:40:33.654Z,100550.38
2023-02-22T13:43:23.890Z,100550.59
2023-02-22T13:46:24.952Z,100539.72
2023-02-22T13:49:28.237Z,100544.63
2023-02-22T13:52:04.348Z,100540.59
2023-02-22T13:54:44.952Z,100535.50
2023-02-22T13:57:23.205Z,100529.56
2023-02-22T14:00:41.496Z,100534.22
2023-02-22T14:03:36.260Z,100529.16
2023-02-22T14:06:07.692Z,100527.50
2023-02-22T14:08:45.641Z,100533.59
2023-02-22T14:11:54.341Z,100536.19
2023-02-22T14:14:24.898Z,100533.28
2023-02-22T14:17:33.180Z,100525.06
2023-02-22T14:20:30.256Z,100518.09
2023-02-22T14:23:01.616Z,100521.66
2023-02-22T14:25:43.569Z,100517.47
2023-02-22T14:28:46.311Z,100515.56
2023-02-22T14:31:33.623Z,100514.03
2023-02-22T14:34:09.297Z,100514.25
2023-02-22T14:36:52.646Z,100488.88
2023-02-22T14:39:32.294Z,100514.38
2023-02-22T14:42:09.103Z,100496.84
2023-02-22T14:44:51.282Z,100509.47
2023-02-22T14:47:28.317Z,100511.31
2023-02-22T14:50:05.548Z,100498.19
2023-02-22T14:52:43.547Z,100506.91
2023-02-22T14:55:21.477Z,100505.25
2023-02-22T14:58:06.432Z,100496.91
2023-02-22T15:00:43.328Z,100494.78
2023-02-22T15:03:21.871Z,100495.53
2023-02-22T15:05:53.527Z,100495.31
2023-02-22T15:08:28.635Z,100500.25
2023-02-22T15:10:58.996Z,100504.31
2023-02-22T15:13:33.027Z,100499.00
2023-02-22T15:16:08.082Z,100502.31
2023-02-22T15:18:43.497Z,100497.88
2023-02-22T15:21:16.811Z,100500.19
2023-02-22T15:23:52.199Z,100503.44
2023-02-22T15:26:28.528Z,100493.00
2023-02-22T15:28:59.466Z,100494.84
2023-02-22T15:31:33.625Z,100493.84
2023-02-22T15:34:13.218Z,100495.91
2023-02-22T15:36:43.775Z,100491.22
2023-02-22T15:39:27.261Z,100489.34
2023-02-22T15:42:09.470Z,100484.81
2023-02-22T15:44:43.101Z,100484.44
2023-02-22T15:47:15.935Z,100480.66
2023-02-22T15:49:45.856Z,100476.91
2023-02-22T15:52:22.509Z,100476.53
2023-02-22T15:54:55.508Z,100475.28
2023-02-22T15:57:27.555Z,100478.03
2023-02-22T15:59:59.993Z,100482.88
2023-02-22T16:02:41.827Z,100493.47
2023-02-22T16:05:14.630Z,100481.97
2023-02-22T16:07:48.119Z,100479.81
2023-02-22T16:10:28.107Z,100479.56
2023-02-22T16:13:25.707Z,100489.44
2023-02-22T16:16:03.605Z,100484.63
2023-02-22T16:18:36.407Z,100489.03
2023-02-22T16:21:13.225Z,100495.25
2023-02-22T16:23:51.271Z,100487.88
2023-02-22T16:26:29.717Z,100486.41
2023-02-22T16:29:01.596Z,100486.75
2023-02-22T16:31:33.990Z,100497.97
2023-02-22T16:34:05.261Z,100495.06
2023-02-22T16:36:43.811Z,100492.91
2023-02-22T16:39:21.055Z,100497.72
2023-02-22T16:41:54.682Z,100492.25
2023-02-22T16:44:25.920Z,100493.66
2023-02-22T16:46:59.897Z,100495.63
2023-02-22T16:49:30.512Z,100490.34
2023-02-22T16:52:03.373Z,100495.28
2023-02-22T16:54:36.891Z,100495.88
2023-02-22T16:57:12.847Z,100497.13
2023-02-22T16:59:42.782Z,100504.44
2023-02-22T17:02:16.461Z,100503.28
2023-02-22T17:04:50.068Z,100494.16
2023-02-22T17:07:23.963Z,100502.63
2023-02-22T17:09:53.800Z,100500.72
2023-02-22T17:12:26.297Z,100504.63
2023-02-22T17:14:56.192Z,100501.97
2023-02-22T17:17:26.516Z,100497.75
2023-02-22T17:19:56.591Z,100504.84
2023-02-22T17:22:26.534Z,100505.19
2023-02-22T17:24:56.490Z,100474.97
2023-02-22T17:27:28.971Z,100510.31
2023-02-22T17:29:59.371Z,100506.59
2023-02-22T17:32:29.603Z,100518.06
2023-02-22T17:34:59.858Z,100511.75
2023-02-22T17:37:29.788Z,100515.75
2023-02-22T17:39:59.717Z,100519.78
2023-02-22T17:42:32.465Z,100506.75
2023-02-22T17:45:02.552Z,100515.34
2023-02-22T17:47:33.427Z,100522.66
2023-02-22T17:50:03.667Z,100526.78
2023-02-22T17:52:34.420Z,100529.78
2023-02-22T17:55:07.329Z,100482.19
2023-02-22T18:29:56.933Z,100523.03
2023-02-22T18:32:30.948Z,100545.22
2023-02-22T18:35:02.582Z,100534.84
2023-02-22T18:37:32.984Z,100539.16
2023-02-22T18:40:10.298Z,100539.00
2023-02-22T18:42:41.945Z,100535.19
2023-02-22T18:45:15.193Z,100537.56
2023-02-22T18:47:50.017Z,100535.19
2023-02-22T18:50:20.235Z,100514.69
2023-02-22T18:52:50.111Z,100529.59
2023-02-22T18:55:24.060Z,100529.03
2023-02-22T18:57:57.982Z,100533.34
2023-02-22T19:00:31.990Z,100528.00
2023-02-22T19:03:02.021Z,100522.72
2023-02-22T19:05:33.380Z,100526.59
2023-02-22T19:08:11.398Z,100523.03
2023-02-22T19:10:41.562Z,100522.78
2023-02-22T19:13:12.191Z,100520.53
2023-02-22T19:15:45.340Z,100520.16
2023-02-22T19:18:15.944Z,100522.53
2023-02-22T19:20:47.571Z,100517.94
2023-02-22T19:23:17.664Z,100507.00
2023-02-22T19:25:50.344Z,100523.75
2023-02-22T19:28:20.742Z,100509.84
2023-02-22T19:30:53.265Z,100512.25
2023-02-22T19:33:26.132Z,100516.22
2023-02-22T19:35:56.732Z,100505.59
2023-02-22T19:38:26.805Z,100520.56
2023-02-22T19:40:57.935Z,100516.16
2023-02-22T19:43:28.652Z,100523.69
2023-02-22T19:46:09.088Z,100508.31
2023-02-22T19:48:40.269Z,100508.03
2023-02-22T19:51:13.249Z,100511.91
2023-02-22T19:53:44.632Z,100502.13
2023-02-22T19:56:16.470Z,100494.13
2023-02-22T19:58:48.446Z,100517.34
2023-02-22T20:01:24.107Z,100506.56
2023-02-22T20:03:55.044Z,100516.91
2023-02-22T20:06:28.471Z,100520.16
2023-02-22T20:09:01.481Z,100522.50
2023-02-22T20:11:33.340Z,100501.13
2023-02-22T20:14:06.637Z,100526.22
2023-02-22T20:16:46.244Z,100531.84
2023-02-22T20:19:20.735Z,100494.03
2023-02-22T20:21:52.600Z,100520.78
2023-02-22T20:24:22.999Z,100479.13
2023-02-22T20:26:56.636Z,100527.56
2023-02-22T20:29:35.975Z,100523.00
2023-02-22T20:32:15.434Z,100513.72
2023-02-22T20:34:51.842Z,100522.00
2023-02-22T20:37:22.540Z,100529.81
2023-02-22T20:39:54.057Z,100502.78
2023-02-22T20:42:24.406Z,100502.50
2023-02-22T20:44:54.958Z,100468.06
2023-02-22T20:47:28.374Z,100524.50
2023-02-22T20:49:58.495Z,100524.50
2023-02-22T20:52:28.577Z,100520.97
2023-02-22T20:54:59.200Z,100530.28
2023-02-22T20:57:29.591Z,100525.97
2023-02-22T21:00:00.642Z,100515.66
2023-02-22T21:02:33.975Z,100514.91
2023-02-22T21:05:04.375Z,100522.44
2023-02-22T21:07:34.968Z,100522.28
2023-02-22T21:10:06.292Z,100498.69
2023-02-22T21:12:45.242Z,100488.63
2023-02-22T21:15:27.460Z,100470.88
2023-02-22T21:18:07.172Z,100519.94
2023-02-22T21:20:55.336Z,100522.28
2023-02-22T21:26:41.665Z,100402.41
2023-02-22T21:29:23.976Z,100522.88
2023-02-22T21:32:22.631Z,100450.09
2023-02-22T21:41:45.204Z,100515.78
2023-02-22T21:44:16.669Z,100483.00
2023-02-22T21:46:50.882Z,100503.97
2023-02-22T21:49:23.048Z,100505.16
2023-02-22T21:51:57.947Z,100399.75
2023-02-22T21:54:35.219Z,100440.78
2023-02-22T21:57:09.721Z,100449.97
2023-02-22T21:59:47.887Z,100509.75
2023-02-22T22:02:26.616Z,100500.00
2023-02-22T22:05:03.618Z,100371.09
2023-02-22T22:07:57.121Z,100436.03
2023-02-22T22:11:01.637Z,100460.53
2023-02-22T22:13:43.639Z,100506.34
2023-02-22T22:19:27.034Z,100375.94
2023-02-22T22:22:06.471Z,100515.78
2023-02-22T22:27:57.541Z,100510.19
2023-02-22T22:30:36.100Z,100506.31
2023-02-22T22:36:44.318Z,100502.06
2023-02-22T22:39:27.511Z,100435.88
2023-02-22T22:42:06.017Z,100515.31
2023-02-22T22:45:03.220Z,100519.63
2023-02-22T22:51:33.809Z,100537.03
2023-02-22T22:54:29.554Z,100529.94
2023-02-22T22:57:31.829Z,100374.03
2023-02-22T23:03:31.070Z,100511.91
2023-02-22T23:06:34.949Z,100489.13
2023-02-22T23:09:22.589Z,100521.06
2023-02-22T23:12:11.801Z,100479.34
2023-02-22T23:14:46.287Z,100432.75
2023-02-22T23:17:32.171Z,100426.09
2023-02-22T23:20:11.449Z,100522.47
2023-02-22T23:22:47.845Z,100515.56
2023-02-22T23:25:20.228Z,100519.53
2023-02-22T23:27:51.825Z,100503.41
2023-02-22T23:30:22.668Z,100516.00
2023-02-22T23:32:57.227Z,100524.41
2023-02-22T23:35:27.801Z,100489.06
2023-02-22T23:37:58.945Z,100520.38
2023-02-22T23:40:30.165Z,100482.56
2023-02-22T23:43:04.288Z,100488.63
2023-02-22T23:45:38.875Z,100502.34
2023-02-22T23:48:12.904Z,100505.56
2023-02-22T23:50:44.781Z,100528.97
2023-02-22T23:53:15.961Z,100527.75
2023-02-22T23:55:47.163Z,100530.56
2023-02-22T23:58:18.650Z,100505.56
